Time;durP1;ratioP1;P1;durP2;ratioP2;P2;SDS_P1;SDS_P2;PMS_P1;PMS_P2;Temp;Humidity;BMP_temperature;BMP_pressure;BME280_temperature;BME280_humidity;BME280_pressure;Samples;Min_cycle;Max_cycle;Signal;HPM_P1;HPM_P2
2022/12/02 00:06:34;;;;;;;22.87;10.40;;;-1.40;91.20;;;;;;6019072;23;20721;-83
2022/12/02 00:32:01;;;;;;;14.93;8.90;;;-1.20;91.60;;;;;;5984622;23;20694;-83
2022/12/02 00:52:08;;;;;;;21.13;9.63;;;-1.20;91.10;;;;;;5920237;23;20200;-84
2022/12/02 01:17:14;;;;;;;20.00;11.90;;;-1.50;90.20;;;;;;5938561;23;20171;-82
2022/12/02 01:37:51;;;;;;;17.97;10.57;;;-1.40;90.50;;;;;;5791369;24;20188;-86
2022/12/02 02:08:22;;;;;;;17.23;10.10;;;-1.40;90.30;;;;;;5902201;24;20334;-84
2022/12/02 02:38:42;;;;;;;12.63;9.17;;;-1.50;89.50;;;;;;6055257;23;20189;-82
2022/12/02 03:14:17;;;;;;;16.37;8.70;;;-1.40;89.40;;;;;;5874456;24;20261;-81
2022/12/02 03:44:07;;;;;;;21.60;12.70;;;-1.30;88.90;;;;;;5756990;24;20792;-83
2022/12/02 04:20:10;;;;;;;22.50;14.27;;;-1.20;90.10;;;;;;5857583;24;20669;-84
2022/12/02 04:50:20;;;;;;;25.27;14.70;;;-1.30;90.00;;;;;;5569786;25;20202;-87
2022/12/02 05:20:47;;;;;;;25.33;16.33;;;-1.60;89.20;;;;;;5615762;25;20200;-87
2022/12/02 06:42:08;;;;;;;24.67;15.53;;;-1.90;88.60;;;;;;5668444;24;20268;-76
2022/12/02 07:58:04;;;;;;;22.03;14.47;;;-1.90;90.30;;;;;;5598110;24;20185;-78
2022/12/02 08:23:35;;;;;;;30.67;16.57;;;-2.00;90.70;;;;;;5622253;24;21261;-78
2022/12/02 09:18:42;;;;;;;26.23;14.30;;;-1.90;91.20;;;;;;5455749;24;20589;-78
2022/12/02 09:39:08;;;;;;;23.13;12.70;;;-2.20;91.10;;;;;;5374329;25;20709;-78
2022/12/02 10:09:50;;;;;;;31.47;15.97;;;-2.00;90.60;;;;;;5554224;24;20270;-78
2022/12/02 10:40:27;;;;;;;29.10;18.43;;;-2.10;90.60;;;;;;5584040;24;20419;-77
2022/12/02 11:05:42;;;;;;;35.37;20.93;;;-2.40;90.40;;;;;;5711131;24;20705;-79
2022/12/02 11:36:16;;;;;;;23.30;13.43;;;-2.20;90.30;;;;;;5820469;23;20480;-78
2022/12/02 12:06:33;;;;;;;29.47;15.30;;;-2.10;90.70;;;;;;5859273;23;20301;-79
2022/12/02 12:37:03;;;;;;;38.53;20.87;;;-2.20;90.80;;;;;;5903764;23;20246;-78
2022/12/02 13:02:09;;;;;;;24.00;13.70;;;-2.20;91.00;;;;;;5554761;24;20191;-78
2022/12/02 13:27:23;;;;;;;32.17;19.07;;;-2.20;91.10;;;;;;5489878;24;20499;-81
2022/12/02 14:12:34;;;;;;;37.50;17.87;;;-2.30;92.20;;;;;;6114159;23;20194;-87
2022/12/02 14:33:07;;;;;;;30.40;13.77;;;-2.40;93.00;;;;;;6055867;23;20249;-85
2022/12/02 14:53:32;;;;;;;42.17;21.83;;;-2.40;93.70;;;;;;5857226;24;20336;-85
2022/12/02 15:23:32;;;;;;;43.57;19.87;;;-2.50;94.40;;;;;;5766528;24;20343;-85
2022/12/02 16:19:45;;;;;;;26.93;13.20;;;-2.60;97.70;;;;;;6140794;22;20208;-85
2022/12/02 17:20:41;;;;;;;33.73;17.07;;;-2.80;99.90;;;;;;6216591;23;20217;-83
2022/12/02 17:46:00;;;;;;;31.43;17.93;;;-2.80;99.90;;;;;;5868896;24;20186;-86
2022/12/02 18:36:43;;;;;;;57.33;29.07;;;-2.60;99.90;;;;;;5933204;24;20269;-86
2022/12/02 19:06:53;;;;;;;55.60;26.37;;;-2.50;99.90;;;;;;6125297;23;20218;-84
2022/12/02 19:37:41;;;;;;;52.43;25.33;;;-2.50;99.90;;;;;;6062746;23;20283;-84
2022/12/02 19:41:59;;;;;;;40.37;17.97;;;-2.50;99.90;;;;;;5994260;23;20195;-88
2022/12/02 20:02:33;;;;;;;52.70;25.63;;;-2.40;99.90;;;;;;6231242;22;20335;-87
2022/12/02 20:17:58;;;;;;;54.80;26.00;;;-2.30;99.90;;;;;;6121300;22;20525;-86
2022/12/02 20:43:05;;;;;;;43.20;19.33;;;-2.30;99.90;;;;;;6139614;22;20517;-85
2022/12/02 21:07:50;;;;;;;37.80;20.67;;;-2.20;99.90;;;;;;6131808;22;20199;31
2022/12/02 21:23:20;;;;;;;31.47;13.87;;;-2.20;99.90;;;;;;6223942;23;20253;-83
2022/12/02 21:43:23;;;;;;;54.00;23.63;;;-2.00;99.90;;;;;;5848820;24;20277;-85
2022/12/02 22:03:53;;;;;;;67.20;27.27;;;-2.00;99.90;;;;;;5812864;24;20225;-84
2022/12/02 22:44:13;;;;;;;55.47;25.90;;;-2.00;99.90;;;;;;6182521;23;20227;-84
2022/12/02 23:14:37;;;;;;;60.90;27.47;;;-1.80;99.90;;;;;;5993546;23;20455;-83
